DLH34L EIDW-EFHK
Flight info
| Callsign | DLH34L |
|---|---|
| Flight time | N/A |
| Altitude | 37000 |
| Route | ROTEV3J ROTEV DCT GOTNA DCT TRN DCT ALOTI DCT LUNIP DCT VATEX DCT RIKUM DCT RIRIP Y364 LAKUT |
| Aircraft | A20N/M-SDE2E3FGHIRWXY/LB1 |
Departure
| Time | N/A |
|---|---|
| Airport | Dublin Airport (EIDW) |
Arrival
| Time | 2026-02-19 13:37 |
|---|---|
| Airport | Helsinki Vantaa Airport (EFHK) |
| Time | Latitude | Longitude | Altitude | Speed | Heading |
|---|---|---|---|---|---|
| 2026-02-19 13:03 | 60.39873 | 24.08000 | 37182 ft | 396 kts | 88° |
| 2026-02-19 13:03 | 60.40125 | 24.13890 | 35893 ft | 440 kts | 84° |
| 2026-02-19 13:04 | 60.40553 | 24.20303 | 34537 ft | 466 kts | 83° |
| 2026-02-19 13:04 | 60.41503 | 24.33391 | 32349 ft | 468 kts | 83° |
| 2026-02-19 13:04 | 60.42142 | 24.39892 | 31237 ft | 469 kts | 74° |
| 2026-02-19 13:05 | 60.43409 | 24.45958 | 30460 ft | 466 kts | 61° |
| 2026-02-19 13:05 | 60.45270 | 24.51224 | 30106 ft | 454 kts | 49° |
| 2026-02-19 13:05 | 60.47580 | 24.55426 | 29681 ft | 447 kts | 36° |
| 2026-02-19 13:05 | 60.50331 | 24.58540 | 28879 ft | 444 kts | 22° |
| 2026-02-19 13:06 | 60.53264 | 24.60231 | 27936 ft | 440 kts | 8° |
| 2026-02-19 13:06 | 60.56376 | 24.60438 | 27004 ft | 433 kts | 353° |
| 2026-02-19 13:06 | 60.59242 | 24.59138 | 26140 ft | 425 kts | 339° |
| 2026-02-19 13:06 | 60.61915 | 24.56671 | 25288 ft | 420 kts | 332° |
| 2026-02-19 13:07 | 60.64473 | 24.53778 | 24446 ft | 414 kts | 329° |
| 2026-02-19 13:07 | 60.67054 | 24.50728 | 23444 ft | 410 kts | 329° |
| 2026-02-19 13:07 | 60.69522 | 24.47779 | 22270 ft | 406 kts | 329° |
| 2026-02-19 13:07 | 60.71909 | 24.44892 | 21165 ft | 401 kts | 329° |
| 2026-02-19 13:08 | 60.74303 | 24.41960 | 20081 ft | 397 kts | 329° |
| 2026-02-19 13:08 | 60.78983 | 24.36123 | 17983 ft | 387 kts | 329° |
| 2026-02-19 13:08 | 60.81254 | 24.33245 | 16855 ft | 384 kts | 329° |
| 2026-02-19 13:09 | 60.83505 | 24.30377 | 15751 ft | 381 kts | 329° |
| 2026-02-19 13:09 | 60.85851 | 24.27786 | 14679 ft | 375 kts | 341° |
| 2026-02-19 13:09 | 60.88379 | 24.26771 | 13644 ft | 367 kts | 1° |
| 2026-02-19 13:09 | 60.90059 | 24.27097 | 12883 ft | 361 kts | 14° |
| 2026-02-19 13:10 | 60.92398 | 24.29094 | 11755 ft | 354 kts | 34° |
| 2026-02-19 13:10 | 60.94195 | 24.32651 | 10667 ft | 348 kts | 55° |
| 2026-02-19 13:10 | 60.95215 | 24.37379 | 9548 ft | 344 kts | 77° |
| 2026-02-19 13:10 | 60.95294 | 24.42192 | 8447 ft | 341 kts | 98° |
| 2026-02-19 13:11 | 60.94491 | 24.46769 | 7408 ft | 339 kts | 120° |
| 2026-02-19 13:11 | 60.92930 | 24.50291 | 6706 ft | 329 kts | 140° |
| 2026-02-19 13:11 | 60.91180 | 24.53110 | 6251 ft | 311 kts | 140° |
| 2026-02-19 13:11 | 60.89413 | 24.55515 | 5779 ft | 299 kts | 151° |
| 2026-02-19 13:12 | 60.87447 | 24.57129 | 5325 ft | 304 kts | 159° |
| 2026-02-19 13:12 | 60.83502 | 24.59926 | 4974 ft | 300 kts | 160° |
| 2026-02-19 13:12 | 60.81432 | 24.61304 | 4971 ft | 300 kts | 160° |
| 2026-02-19 13:13 | 60.79506 | 24.62539 | 4962 ft | 301 kts | 161° |
| 2026-02-19 13:13 | 60.77503 | 24.63798 | 4964 ft | 302 kts | 161° |
| 2026-02-19 13:13 | 60.75478 | 24.65060 | 4965 ft | 301 kts | 161° |
| 2026-02-19 13:13 | 60.73482 | 24.66298 | 4964 ft | 302 kts | 161° |
| 2026-02-19 13:14 | 60.71447 | 24.67559 | 4962 ft | 302 kts | 161° |
| 2026-02-19 13:14 | 60.69471 | 24.68785 | 4959 ft | 302 kts | 161° |
| 2026-02-19 13:14 | 60.67432 | 24.70050 | 4956 ft | 302 kts | 161° |
| 2026-02-19 13:14 | 60.65421 | 24.71296 | 4963 ft | 302 kts | 161° |
| 2026-02-19 13:15 | 60.63413 | 24.72536 | 4951 ft | 303 kts | 161° |
| 2026-02-19 13:15 | 60.61408 | 24.73774 | 4945 ft | 303 kts | 161° |
| 2026-02-19 13:15 | 60.59382 | 24.75023 | 4945 ft | 303 kts | 161° |
| 2026-02-19 13:15 | 60.57388 | 24.76252 | 4939 ft | 303 kts | 161° |
| 2026-02-19 13:16 | 60.55342 | 24.77510 | 4940 ft | 303 kts | 161° |
| 2026-02-19 13:16 | 60.51333 | 24.79965 | 4932 ft | 303 kts | 161° |
| 2026-02-19 13:16 | 60.49293 | 24.81214 | 4923 ft | 303 kts | 161° |
| 2026-02-19 13:17 | 60.47288 | 24.82442 | 4931 ft | 303 kts | 161° |
| 2026-02-19 13:17 | 60.45306 | 24.83808 | 4922 ft | 302 kts | 154° |
| 2026-02-19 13:17 | 60.43426 | 24.85702 | 4856 ft | 302 kts | 150° |
| 2026-02-19 13:17 | 60.41564 | 24.87613 | 4320 ft | 299 kts | 151° |
| 2026-02-19 13:18 | 60.39722 | 24.89471 | 3525 ft | 292 kts | 151° |
| 2026-02-19 13:18 | 60.37753 | 24.91535 | 3493 ft | 342 kts | 150° |
| 2026-02-19 13:18 | 60.35563 | 24.93832 | 4263 ft | 360 kts | 151° |
| 2026-02-19 13:18 | 60.33336 | 24.96131 | 5783 ft | 361 kts | 151° |
| 2026-02-19 13:19 | 60.31030 | 24.98499 | 6486 ft | 383 kts | 151° |
| 2026-02-19 13:19 | 60.28738 | 25.00842 | 6634 ft | 355 kts | 152° |
| 2026-02-19 13:19 | 60.26622 | 25.03027 | 6463 ft | 332 kts | 146° |
| 2026-02-19 13:19 | 60.24960 | 25.06066 | 5926 ft | 317 kts | 126° |
| 2026-02-19 13:20 | 60.23996 | 25.10037 | 4873 ft | 321 kts | 102° |
| 2026-02-19 13:20 | 60.24305 | 25.18654 | 4041 ft | 293 kts | 74° |
| 2026-02-19 13:20 | 60.25244 | 25.22197 | 3928 ft | 272 kts | 47° |
| 2026-02-19 13:21 | 60.26756 | 25.24232 | 3925 ft | 280 kts | 21° |
| 2026-02-19 13:21 | 60.28731 | 25.24777 | 3924 ft | 291 kts | 0° |
| 2026-02-19 13:21 | 60.30735 | 25.23938 | 3926 ft | 295 kts | 340° |
| 2026-02-19 13:21 | 60.32571 | 25.22052 | 3926 ft | 297 kts | 332° |
| 2026-02-19 13:22 | 60.34375 | 25.19972 | 3914 ft | 297 kts | 332° |
| 2026-02-19 13:22 | 60.36167 | 25.17901 | 3917 ft | 297 kts | 332° |
| 2026-02-19 13:22 | 60.37964 | 25.15824 | 3917 ft | 297 kts | 332° |
| 2026-02-19 13:22 | 60.39739 | 25.13768 | 3912 ft | 297 kts | 332° |
| 2026-02-19 13:23 | 60.41534 | 25.11687 | 3926 ft | 297 kts | 332° |
| 2026-02-19 13:23 | 60.43347 | 25.09585 | 3923 ft | 297 kts | 332° |
| 2026-02-19 13:23 | 60.45130 | 25.07460 | 3923 ft | 298 kts | 327° |
| 2026-02-19 13:23 | 60.46552 | 25.04338 | 3918 ft | 303 kts | 302° |
| 2026-02-19 13:24 | 60.47208 | 25.00240 | 3868 ft | 308 kts | 277° |
| 2026-02-19 13:24 | 60.45949 | 24.92169 | 2992 ft | 305 kts | 227° |
| 2026-02-19 13:25 | 60.42255 | 24.88963 | 2209 ft | 285 kts | 177° |
| 2026-02-19 13:25 | 60.40363 | 24.89559 | 2040 ft | 268 kts | 161° |
| 2026-02-19 13:25 | 60.38677 | 24.90788 | 2150 ft | 265 kts | 153° |
| 2026-02-19 13:25 | 60.37002 | 24.92392 | 3642 ft | 273 kts | 151° |
| 2026-02-19 13:26 | 60.35799 | 24.93611 | 3952 ft | 304 kts | 150° |
| 2026-02-19 13:26 | 60.33763 | 24.95724 | 4006 ft | 355 kts | 150° |
| 2026-02-19 13:26 | 60.31501 | 24.98068 | 4001 ft | 355 kts | 151° |
| 2026-02-19 13:26 | 60.29247 | 24.99853 | 4002 ft | 329 kts | 167° |
| 2026-02-19 13:27 | 60.27060 | 24.99848 | 3995 ft | 307 kts | 191° |
| 2026-02-19 13:27 | 60.25098 | 24.98076 | 4003 ft | 320 kts | 216° |
| 2026-02-19 13:27 | 60.23612 | 24.94834 | 4003 ft | 318 kts | 238° |
| 2026-02-19 13:27 | 60.22406 | 24.91038 | 4004 ft | 319 kts | 235° |
| 2026-02-19 13:28 | 60.21032 | 24.87458 | 4005 ft | 319 kts | 230° |
| 2026-02-19 13:28 | 60.18075 | 24.80801 | 4010 ft | 319 kts | 228° |
| 2026-02-19 13:28 | 60.16593 | 24.77490 | 4010 ft | 319 kts | 228° |
| 2026-02-19 13:29 | 60.15055 | 24.74058 | 4004 ft | 320 kts | 228° |
| 2026-02-19 13:29 | 60.13569 | 24.70746 | 4005 ft | 319 kts | 228° |
| 2026-02-19 13:29 | 60.12079 | 24.67425 | 4021 ft | 319 kts | 228° |
| 2026-02-19 13:29 | 60.10579 | 24.64090 | 4022 ft | 319 kts | 228° |
| 2026-02-19 13:30 | 60.09264 | 24.60997 | 4022 ft | 319 kts | 235° |
| 2026-02-19 13:30 | 60.08347 | 24.57350 | 4020 ft | 318 kts | 255° |
| 2026-02-19 13:30 | 60.08170 | 24.52928 | 4027 ft | 314 kts | 279° |
| 2026-02-19 13:30 | 60.08877 | 24.48873 | 4024 ft | 310 kts | 304° |
| 2026-02-19 13:31 | 60.10343 | 24.45766 | 4029 ft | 305 kts | 328° |
| 2026-02-19 13:31 | 60.12308 | 24.44190 | 4028 ft | 300 kts | 353° |
| 2026-02-19 13:31 | 60.13712 | 24.44126 | 4021 ft | 298 kts | 8° |
| 2026-02-19 13:31 | 60.16286 | 24.46077 | 4022 ft | 295 kts | 36° |
| 2026-02-19 13:32 | 60.17734 | 24.49074 | 4019 ft | 296 kts | 57° |
| 2026-02-19 13:32 | 60.19102 | 24.56844 | 4000 ft | 297 kts | 73° |
| 2026-02-19 13:32 | 60.19676 | 24.60855 | 3698 ft | 294 kts | 73° |
| 2026-02-19 13:33 | 60.20298 | 24.64740 | 3211 ft | 287 kts | 64° |
| 2026-02-19 13:33 | 60.21322 | 24.68098 | 3069 ft | 268 kts | 52° |
| 2026-02-19 13:33 | 60.22473 | 24.70886 | 2886 ft | 255 kts | 48° |
| 2026-02-19 13:33 | 60.23662 | 24.73501 | 2567 ft | 247 kts | 47° |
| 2026-02-19 13:34 | 60.24787 | 24.75994 | 2214 ft | 233 kts | 47° |
| 2026-02-19 13:34 | 60.25518 | 24.77615 | 1982 ft | 215 kts | 47° |
| 2026-02-19 13:34 | 60.26476 | 24.79731 | 1679 ft | 194 kts | 47° |
| 2026-02-19 13:34 | 60.27342 | 24.81646 | 1409 ft | 176 kts | 47° |
| 2026-02-19 13:35 | 60.28146 | 24.83424 | 1161 ft | 153 kts | 46° |
| 2026-02-19 13:35 | 60.28817 | 24.84907 | 926 ft | 133 kts | 46° |
| 2026-02-19 13:35 | 60.29401 | 24.86200 | 723 ft | 117 kts | 45° |
| 2026-02-19 13:35 | 60.29968 | 24.87450 | 583 ft | 125 kts | 44° |
| 2026-02-19 13:36 | 60.30554 | 24.88768 | 404 ft | 123 kts | 44° |
| 2026-02-19 13:36 | 60.31709 | 24.91304 | 156 ft | 112 kts | 43° |
| 2026-02-19 13:36 | 60.32111 | 24.92180 | 163 ft | 61 kts | 47° |
| 2026-02-19 13:37 | 60.32314 | 24.92628 | 168 ft | 26 kts | 48° |
| 2026-02-19 13:37 | 60.32370 | 24.92771 | 169 ft | 13 kts | 56° |
| 2026-02-19 13:37 | 60.32421 | 24.92955 | 171 ft | 16 kts | 64° |
| 2026-02-19 13:37 | 60.32454 | 24.93179 | 174 ft | 18 kts | 73° |
| 2026-02-19 13:38 | 60.32484 | 24.93434 | 175 ft | 17 kts | 80° |
| 2026-02-19 13:38 | 60.32508 | 24.93654 | 177 ft | 16 kts | 75° |
| 2026-02-19 13:38 | 60.32539 | 24.93887 | 177 ft | 18 kts | 72° |
| 2026-02-19 13:38 | 60.32622 | 24.94101 | 179 ft | 20 kts | 47° |
| 2026-02-19 13:39 | 60.32720 | 24.94307 | 181 ft | 21 kts | 44° |
| 2026-02-19 13:39 | 60.32779 | 24.94452 | 182 ft | 12 kts | 52° |
| 2026-02-19 13:39 | 60.32835 | 24.94572 | 183 ft | 11 kts | 45° |
| 2026-02-19 13:39 | 60.32884 | 24.94673 | 196 ft | 10 kts | 46° |
| 2026-02-19 13:40 | 60.32932 | 24.94787 | 190 ft | 9 kts | 68° |
| 2026-02-19 13:40 | 60.32791 | 24.94986 | 179 ft | 20 kts | 161° |
| 2026-02-19 13:40 | 60.32639 | 24.95088 | 175 ft | 26 kts | 166° |
| 2026-02-19 13:41 | 60.32445 | 24.95209 | 168 ft | 31 kts | 161° |
| 2026-02-19 13:41 | 60.32267 | 24.95396 | 164 ft | 29 kts | 136° |
| 2026-02-19 13:41 | 60.32179 | 24.95565 | 163 ft | 14 kts | 136° |
| 2026-02-19 13:41 | 60.32105 | 24.95705 | 162 ft | 15 kts | 136° |
| 2026-02-19 13:42 | 60.32034 | 24.95833 | 164 ft | 13 kts | 139° |
| 2026-02-19 13:42 | 60.31964 | 24.95955 | 163 ft | 13 kts | 139° |
| 2026-02-19 13:42 | 60.31897 | 24.96076 | 164 ft | 13 kts | 137° |
| 2026-02-19 13:42 | 60.31828 | 24.96125 | 164 ft | 10 kts | 207° |
| 2026-02-19 13:43 | 60.31782 | 24.96030 | 164 ft | 9 kts | 228° |
| 2026-02-19 13:43 | 60.31736 | 24.95932 | 163 ft | 10 kts | 226° |
| 2026-02-19 13:43 | 60.31696 | 24.95862 | 163 ft | 5 kts | 191° |
| 2026-02-19 13:43 | 60.31669 | 24.95894 | 163 ft | 5 kts | 133° |
| 2026-02-19 13:44 | 60.31646 | 24.95941 | 163 ft | 5 kts | 135° |
| 2026-02-19 13:44 | 60.31633 | 24.95964 | 163 ft | 0 kts | 144° |